sensor_id;sensor_type;location;lat;lon;timestamp;P1;durP1;ratioP1;P2;durP2;ratioP2
6217;SDS011;3142;48.206;11.550;2023-04-10T00:00:10;13.70;;;9.33;;
6217;SDS011;3142;48.206;11.550;2023-04-10T00:02:37;12.17;;;8.80;;
6217;SDS011;3142;48.206;11.550;2023-04-10T00:05:04;12.17;;;8.90;;
6217;SDS011;3142;48.206;11.550;2023-04-10T00:07:31;14.00;;;9.67;;
6217;SDS011;3142;48.206;11.550;2023-04-10T00:09:58;11.43;;;8.93;;
6217;SDS011;3142;48.206;11.550;2023-04-10T00:12:24;11.83;;;9.60;;
6217;SDS011;3142;48.206;11.550;2023-04-10T00:14:52;10.83;;;8.87;;
6217;SDS011;3142;48.206;11.550;2023-04-10T00:17:19;12.53;;;9.43;;
6217;SDS011;3142;48.206;11.550;2023-04-10T00:19:45;10.83;;;9.37;;
6217;SDS011;3142;48.206;11.550;2023-04-10T00:22:11;10.67;;;9.10;;
6217;SDS011;3142;48.206;11.550;2023-04-10T00:24:38;12.03;;;9.23;;
6217;SDS011;3142;48.206;11.550;2023-04-10T00:27:04;12.27;;;9.53;;
6217;SDS011;3142;48.206;11.550;2023-04-10T00:29:31;12.33;;;9.57;;
6217;SDS011;3142;48.206;11.550;2023-04-10T00:31:58;13.67;;;9.47;;
6217;SDS011;3142;48.206;11.550;2023-04-10T00:34:25;11.07;;;8.97;;
6217;SDS011;3142;48.206;11.550;2023-04-10T00:36:51;11.73;;;9.60;;
6217;SDS011;3142;48.206;11.550;2023-04-10T00:39:18;12.43;;;9.60;;
6217;SDS011;3142;48.206;11.550;2023-04-10T00:41:44;10.63;;;9.20;;
6217;SDS011;3142;48.206;11.550;2023-04-10T00:44:10;13.10;;;10.33;;
6217;SDS011;3142;48.206;11.550;2023-04-10T00:46:37;11.70;;;9.07;;
6217;SDS011;3142;48.206;11.550;2023-04-10T00:49:06;11.43;;;9.77;;
6217;SDS011;3142;48.206;11.550;2023-04-10T00:51:34;11.57;;;9.27;;
6217;SDS011;3142;48.206;11.550;2023-04-10T00:54:01;11.63;;;9.60;;
6217;SDS011;3142;48.206;11.550;2023-04-10T00:56:29;12.00;;;9.17;;
6217;SDS011;3142;48.206;11.550;2023-04-10T00:58:56;11.63;;;8.87;;
6217;SDS011;3142;48.206;11.550;2023-04-10T01:01:23;11.70;;;9.30;;
6217;SDS011;3142;48.206;11.550;2023-04-10T01:03:49;12.57;;;8.87;;
6217;SDS011;3142;48.206;11.550;2023-04-10T01:06:20;11.00;;;8.63;;
6217;SDS011;3142;48.206;11.550;2023-04-10T01:08:58;11.30;;;8.83;;
6217;SDS011;3142;48.206;11.550;2023-04-10T01:11:33;12.60;;;9.50;;
6217;SDS011;3142;48.206;11.550;2023-04-10T01:14:11;11.37;;;9.20;;
6217;SDS011;3142;48.206;11.550;2023-04-10T01:16:45;12.80;;;10.00;;
6217;SDS011;3142;48.206;11.550;2023-04-10T01:19:20;13.30;;;9.23;;
6217;SDS011;3142;48.206;11.550;2023-04-10T01:21:57;12.83;;;9.10;;
6217;SDS011;3142;48.206;11.550;2023-04-10T01:24:31;10.63;;;8.80;;
6217;SDS011;3142;48.206;11.550;2023-04-10T01:27:18;14.40;;;9.97;;
6217;SDS011;3142;48.206;11.550;2023-04-10T01:29:54;12.57;;;9.90;;
6217;SDS011;3142;48.206;11.550;2023-04-10T01:32:22;13.63;;;10.13;;
6217;SDS011;3142;48.206;11.550;2023-04-10T01:34:50;12.23;;;9.83;;
6217;SDS011;3142;48.206;11.550;2023-04-10T01:37:19;13.87;;;10.20;;
6217;SDS011;3142;48.206;11.550;2023-04-10T01:39:50;14.70;;;10.70;;
6217;SDS011;3142;48.206;11.550;2023-04-10T01:42:19;13.10;;;10.57;;
6217;SDS011;3142;48.206;11.550;2023-04-10T01:44:48;12.67;;;10.53;;
6217;SDS011;3142;48.206;11.550;2023-04-10T01:47:18;13.20;;;10.37;;
6217;SDS011;3142;48.206;11.550;2023-04-10T01:49:46;12.97;;;10.20;;
6217;SDS011;3142;48.206;11.550;2023-04-10T01:52:14;11.80;;;9.83;;
6217;SDS011;3142;48.206;11.550;2023-04-10T01:54:42;13.77;;;10.33;;
6217;SDS011;3142;48.206;11.550;2023-04-10T01:57:09;13.33;;;10.73;;
6217;SDS011;3142;48.206;11.550;2023-04-10T01:59:39;11.37;;;9.20;;
6217;SDS011;3142;48.206;11.550;2023-04-10T02:02:05;11.87;;;9.50;;
6217;SDS011;3142;48.206;11.550;2023-04-10T02:04:36;11.87;;;9.23;;
6217;SDS011;3142;48.206;11.550;2023-04-10T02:07:03;13.23;;;9.87;;
6217;SDS011;3142;48.206;11.550;2023-04-10T02:09:36;13.60;;;10.10;;
6217;SDS011;3142;48.206;11.550;2023-04-10T02:12:15;13.07;;;9.70;;
6217;SDS011;3142;48.206;11.550;2023-04-10T02:14:44;13.37;;;9.17;;
6217;SDS011;3142;48.206;11.550;2023-04-10T02:17:12;11.27;;;8.80;;
6217;SDS011;3142;48.206;11.550;2023-04-10T02:19:42;12.30;;;9.57;;
6217;SDS011;3142;48.206;11.550;2023-04-10T02:22:12;13.03;;;9.80;;
6217;SDS011;3142;48.206;11.550;2023-04-10T02:24:40;12.90;;;9.43;;
6217;SDS011;3142;48.206;11.550;2023-04-10T02:27:06;13.03;;;10.17;;
6217;SDS011;3142;48.206;11.550;2023-04-10T02:29:33;12.67;;;9.97;;
6217;SDS011;3142;48.206;11.550;2023-04-10T02:31:59;12.87;;;8.97;;
6217;SDS011;3142;48.206;11.550;2023-04-10T02:34:26;13.83;;;9.73;;
6217;SDS011;3142;48.206;11.550;2023-04-10T02:36:53;11.33;;;9.50;;
6217;SDS011;3142;48.206;11.550;2023-04-10T02:39:20;12.53;;;9.70;;
6217;SDS011;3142;48.206;11.550;2023-04-10T02:41:46;12.17;;;9.27;;
6217;SDS011;3142;48.206;11.550;2023-04-10T02:44:13;10.80;;;8.73;;
6217;SDS011;3142;48.206;11.550;2023-04-10T02:46:39;11.73;;;9.07;;
6217;SDS011;3142;48.206;11.550;2023-04-10T02:49:06;11.23;;;8.90;;
6217;SDS011;3142;48.206;11.550;2023-04-10T02:51:33;11.53;;;8.97;;
6217;SDS011;3142;48.206;11.550;2023-04-10T02:54:01;11.57;;;8.80;;
6217;SDS011;3142;48.206;11.550;2023-04-10T02:56:28;11.67;;;9.20;;
6217;SDS011;3142;48.206;11.550;2023-04-10T02:58:54;11.07;;;8.43;;
6217;SDS011;3142;48.206;11.550;2023-04-10T03:01:21;12.77;;;9.03;;
6217;SDS011;3142;48.206;11.550;2023-04-10T03:03:47;12.53;;;8.83;;
6217;SDS011;3142;48.206;11.550;2023-04-10T03:06:14;9.90;;;7.87;;
6217;SDS011;3142;48.206;11.550;2023-04-10T03:08:40;12.53;;;8.87;;
6217;SDS011;3142;48.206;11.550;2023-04-10T03:11:08;11.57;;;8.93;;
6217;SDS011;3142;48.206;11.550;2023-04-10T03:13:34;10.83;;;7.87;;
6217;SDS011;3142;48.206;11.550;2023-04-10T03:16:01;11.67;;;8.50;;
6217;SDS011;3142;48.206;11.550;2023-04-10T03:18:27;10.00;;;8.40;;
6217;SDS011;3142;48.206;11.550;2023-04-10T03:20:55;9.40;;;7.67;;
6217;SDS011;3142;48.206;11.550;2023-04-10T03:23:22;10.57;;;8.13;;
6217;SDS011;3142;48.206;11.550;2023-04-10T03:25:49;11.90;;;7.90;;
6217;SDS011;3142;48.206;11.550;2023-04-10T03:28:17;12.30;;;8.53;;
6217;SDS011;3142;48.206;11.550;2023-04-10T03:30:43;8.60;;;7.30;;
6217;SDS011;3142;48.206;11.550;2023-04-10T03:33:10;9.77;;;7.43;;
6217;SDS011;3142;48.206;11.550;2023-04-10T03:35:36;10.37;;;8.23;;
6217;SDS011;3142;48.206;11.550;2023-04-10T03:38:03;9.83;;;7.67;;
6217;SDS011;3142;48.206;11.550;2023-04-10T03:40:30;10.07;;;8.10;;
6217;SDS011;3142;48.206;11.550;2023-04-10T03:42:58;10.83;;;7.97;;
6217;SDS011;3142;48.206;11.550;2023-04-10T03:45:26;9.73;;;8.00;;
6217;SDS011;3142;48.206;11.550;2023-04-10T03:47:52;10.87;;;8.23;;
6217;SDS011;3142;48.206;11.550;2023-04-10T03:50:19;10.07;;;8.27;;
6217;SDS011;3142;48.206;11.550;2023-04-10T03:52:45;10.63;;;8.53;;
6217;SDS011;3142;48.206;11.550;2023-04-10T03:55:13;11.70;;;8.43;;
6217;SDS011;3142;48.206;11.550;2023-04-10T03:57:42;10.53;;;8.00;;
6217;SDS011;3142;48.206;11.550;2023-04-10T04:00:09;12.87;;;9.03;;
6217;SDS011;3142;48.206;11.550;2023-04-10T04:02:38;10.87;;;8.40;;
6217;SDS011;3142;48.206;11.550;2023-04-10T04:05:05;11.87;;;9.20;;
6217;SDS011;3142;48.206;11.550;2023-04-10T04:07:32;12.20;;;9.70;;
6217;SDS011;3142;48.206;11.550;2023-04-10T04:09:58;11.33;;;8.83;;
6217;SDS011;3142;48.206;11.550;2023-04-10T04:12:25;12.67;;;9.80;;
6217;SDS011;3142;48.206;11.550;2023-04-10T04:14:52;13.63;;;9.67;;
6217;SDS011;3142;48.206;11.550;2023-04-10T04:17:18;13.27;;;10.03;;
6217;SDS011;3142;48.206;11.550;2023-04-10T04:19:46;13.77;;;10.37;;
6217;SDS011;3142;48.206;11.550;2023-04-10T04:22:13;12.90;;;9.47;;
6217;SDS011;3142;48.206;11.550;2023-04-10T04:24:40;13.93;;;10.30;;
6217;SDS011;3142;48.206;11.550;2023-04-10T04:27:06;14.77;;;11.30;;
6217;SDS011;3142;48.206;11.550;2023-04-10T04:29:33;15.37;;;10.00;;
6217;SDS011;3142;48.206;11.550;2023-04-10T04:31:59;14.90;;;10.73;;
6217;SDS011;3142;48.206;11.550;2023-04-10T04:34:26;13.60;;;10.10;;
6217;SDS011;3142;48.206;11.550;2023-04-10T04:36:53;14.20;;;10.60;;
6217;SDS011;3142;48.206;11.550;2023-04-10T04:39:20;14.30;;;10.07;;
6217;SDS011;3142;48.206;11.550;2023-04-10T04:41:47;15.10;;;10.80;;
6217;SDS011;3142;48.206;11.550;2023-04-10T04:44:13;12.60;;;9.97;;
6217;SDS011;3142;48.206;11.550;2023-04-10T04:46:40;13.87;;;10.13;;
6217;SDS011;3142;48.206;11.550;2023-04-10T04:49:06;14.63;;;10.50;;
6217;SDS011;3142;48.206;11.550;2023-04-10T04:51:33;15.90;;;11.83;;
6217;SDS011;3142;48.206;11.550;2023-04-10T04:54:01;12.57;;;9.67;;
6217;SDS011;3142;48.206;11.550;2023-04-10T04:56:27;15.57;;;11.57;;
6217;SDS011;3142;48.206;11.550;2023-04-10T04:58:54;11.77;;;8.83;;
6217;SDS011;3142;48.206;11.550;2023-04-10T05:01:20;13.30;;;10.03;;
6217;SDS011;3142;48.206;11.550;2023-04-10T05:03:47;14.83;;;10.13;;
6217;SDS011;3142;48.206;11.550;2023-04-10T05:06:13;11.60;;;8.63;;
6217;SDS011;3142;48.206;11.550;2023-04-10T05:08:40;11.50;;;9.03;;
6217;SDS011;3142;48.206;11.550;2023-04-10T05:11:08;13.50;;;9.47;;
6217;SDS011;3142;48.206;11.550;2023-04-10T05:13:34;13.33;;;9.77;;
6217;SDS011;3142;48.206;11.550;2023-04-10T05:16:00;12.20;;;9.73;;
6217;SDS011;3142;48.206;11.550;2023-04-10T05:18:27;10.87;;;8.60;;
6217;SDS011;3142;48.206;11.550;2023-04-10T05:20:53;11.00;;;8.47;;
6217;SDS011;3142;48.206;11.550;2023-04-10T05:23:20;12.50;;;9.13;;
6217;SDS011;3142;48.206;11.550;2023-04-10T05:25:46;11.67;;;8.70;;
6217;SDS011;3142;48.206;11.550;2023-04-10T05:28:14;12.23;;;8.93;;
6217;SDS011;3142;48.206;11.550;2023-04-10T05:30:40;11.17;;;9.10;;
6217;SDS011;3142;48.206;11.550;2023-04-10T05:33:07;13.10;;;8.70;;
6217;SDS011;3142;48.206;11.550;2023-04-10T05:35:33;12.07;;;8.87;;
6217;SDS011;3142;48.206;11.550;2023-04-10T05:38:00;64.43;;;40.60;;
6217;SDS011;3142;48.206;11.550;2023-04-10T05:40:27;43.77;;;29.87;;
6217;SDS011;3142;48.206;11.550;2023-04-10T05:42:54;53.30;;;36.23;;
6217;SDS011;3142;48.206;11.550;2023-04-10T05:45:22;58.03;;;37.87;;
6217;SDS011;3142;48.206;11.550;2023-04-10T05:47:48;14.73;;;12.10;;
6217;SDS011;3142;48.206;11.550;2023-04-10T05:50:15;12.00;;;9.03;;
6217;SDS011;3142;48.206;11.550;2023-04-10T05:52:41;10.43;;;8.80;;
6217;SDS011;3142;48.206;11.550;2023-04-10T05:55:08;11.97;;;8.83;;
6217;SDS011;3142;48.206;11.550;2023-04-10T05:57:35;10.33;;;8.37;;
6217;SDS011;3142;48.206;11.550;2023-04-10T06:00:01;10.57;;;8.20;;
6217;SDS011;3142;48.206;11.550;2023-04-10T06:02:29;16.67;;;12.57;;
6217;SDS011;3142;48.206;11.550;2023-04-10T06:04:57;13.27;;;9.80;;
6217;SDS011;3142;48.206;11.550;2023-04-10T06:07:23;18.10;;;12.03;;
6217;SDS011;3142;48.206;11.550;2023-04-10T06:09:51;27.27;;;19.83;;
6217;SDS011;3142;48.206;11.550;2023-04-10T06:12:17;10.77;;;8.23;;
6217;SDS011;3142;48.206;11.550;2023-04-10T06:14:44;13.50;;;9.83;;
6217;SDS011;3142;48.206;11.550;2023-04-10T06:17:10;11.63;;;8.77;;
6217;SDS011;3142;48.206;11.550;2023-04-10T06:19:38;11.50;;;8.20;;
6217;SDS011;3142;48.206;11.550;2023-04-10T06:22:04;11.93;;;8.93;;
6217;SDS011;3142;48.206;11.550;2023-04-10T06:24:31;12.27;;;8.90;;
6217;SDS011;3142;48.206;11.550;2023-04-10T06:26:57;11.97;;;8.33;;
6217;SDS011;3142;48.206;11.550;2023-04-10T06:29:24;12.73;;;8.27;;
6217;SDS011;3142;48.206;11.550;2023-04-10T06:31:51;11.73;;;8.93;;
6217;SDS011;3142;48.206;11.550;2023-04-10T06:34:17;12.53;;;8.90;;
6217;SDS011;3142;48.206;11.550;2023-04-10T06:36:45;11.80;;;8.00;;
6217;SDS011;3142;48.206;11.550;2023-04-10T06:39:12;12.63;;;8.97;;
6217;SDS011;3142;48.206;11.550;2023-04-10T06:41:38;10.83;;;8.30;;
6217;SDS011;3142;48.206;11.550;2023-04-10T06:44:05;11.20;;;8.97;;
6217;SDS011;3142;48.206;11.550;2023-04-10T06:46:31;11.43;;;8.50;;
6217;SDS011;3142;48.206;11.550;2023-04-10T06:48:58;10.77;;;8.70;;
6217;SDS011;3142;48.206;11.550;2023-04-10T06:51:24;11.23;;;8.97;;
6217;SDS011;3142;48.206;11.550;2023-04-10T06:53:52;12.87;;;10.07;;
6217;SDS011;3142;48.206;11.550;2023-04-10T06:56:19;12.13;;;9.33;;
6217;SDS011;3142;48.206;11.550;2023-04-10T06:58:45;10.60;;;8.40;;
6217;SDS011;3142;48.206;11.550;2023-04-10T07:01:12;12.87;;;9.30;;
6217;SDS011;3142;48.206;11.550;2023-04-10T07:03:38;12.97;;;9.00;;
6217;SDS011;3142;48.206;11.550;2023-04-10T07:06:05;11.00;;;8.53;;
6217;SDS011;3142;48.206;11.550;2023-04-10T07:08:32;9.77;;;7.67;;
6217;SDS011;3142;48.206;11.550;2023-04-10T07:11:00;10.30;;;8.13;;
6217;SDS011;3142;48.206;11.550;2023-04-10T07:13:26;9.03;;;7.93;;
6217;SDS011;3142;48.206;11.550;2023-04-10T07:15:53;9.73;;;8.03;;
6217;SDS011;3142;48.206;11.550;2023-04-10T07:18:19;9.70;;;8.03;;
6217;SDS011;3142;48.206;11.550;2023-04-10T07:20:46;9.83;;;8.13;;
6217;SDS011;3142;48.206;11.550;2023-04-10T07:23:12;11.30;;;7.90;;
6217;SDS011;3142;48.206;11.550;2023-04-10T07:25:40;9.37;;;7.73;;
6217;SDS011;3142;48.206;11.550;2023-04-10T07:28:08;9.20;;;8.03;;
6217;SDS011;3142;48.206;11.550;2023-04-10T07:30:34;10.17;;;8.80;;
6217;SDS011;3142;48.206;11.550;2023-04-10T07:33:01;8.53;;;7.63;;
6217;SDS011;3142;48.206;11.550;2023-04-10T07:35:27;14.67;;;11.33;;
6217;SDS011;3142;48.206;11.550;2023-04-10T07:37:54;11.43;;;9.53;;
6217;SDS011;3142;48.206;11.550;2023-04-10T07:40:20;11.57;;;9.93;;
6217;SDS011;3142;48.206;11.550;2023-04-10T07:42:46;11.00;;;8.70;;
6217;SDS011;3142;48.206;11.550;2023-04-10T07:45:14;8.53;;;7.57;;
6217;SDS011;3142;48.206;11.550;2023-04-10T07:47:41;9.60;;;8.13;;
6217;SDS011;3142;48.206;11.550;2023-04-10T07:50:08;9.37;;;8.23;;
6217;SDS011;3142;48.206;11.550;2023-04-10T07:52:34;8.50;;;7.60;;
6217;SDS011;3142;48.206;11.550;2023-04-10T07:55:01;8.27;;;7.23;;
6217;SDS011;3142;48.206;11.550;2023-04-10T07:57:27;8.77;;;7.43;;
6217;SDS011;3142;48.206;11.550;2023-04-10T07:59:56;8.90;;;7.17;;
6217;SDS011;3142;48.206;11.550;2023-04-10T08:02:23;11.60;;;8.27;;
6217;SDS011;3142;48.206;11.550;2023-04-10T08:04:50;8.87;;;7.97;;
6217;SDS011;3142;48.206;11.550;2023-04-10T08:07:17;8.87;;;7.67;;
6217;SDS011;3142;48.206;11.550;2023-04-10T08:09:46;8.00;;;7.20;;
6217;SDS011;3142;48.206;11.550;2023-04-10T08:12:13;9.40;;;8.03;;
6217;SDS011;3142;48.206;11.550;2023-04-10T08:14:39;7.60;;;6.80;;
6217;SDS011;3142;48.206;11.550;2023-04-10T08:17:07;8.07;;;7.27;;
6217;SDS011;3142;48.206;11.550;2023-04-10T08:19:39;7.57;;;6.77;;
6217;SDS011;3142;48.206;11.550;2023-04-10T08:22:06;7.27;;;6.57;;
6217;SDS011;3142;48.206;11.550;2023-04-10T08:24:33;7.93;;;7.13;;
6217;SDS011;3142;48.206;11.550;2023-04-10T08:26:59;7.57;;;6.80;;
6217;SDS011;3142;48.206;11.550;2023-04-10T08:29:26;7.63;;;6.83;;
6217;SDS011;3142;48.206;11.550;2023-04-10T08:31:52;8.53;;;7.07;;
6217;SDS011;3142;48.206;11.550;2023-04-10T08:34:20;7.70;;;6.90;;
6217;SDS011;3142;48.206;11.550;2023-04-10T08:36:49;7.50;;;6.80;;
6217;SDS011;3142;48.206;11.550;2023-04-10T08:39:16;8.00;;;7.20;;
6217;SDS011;3142;48.206;11.550;2023-04-10T08:41:42;8.23;;;6.60;;
6217;SDS011;3142;48.206;11.550;2023-04-10T08:44:09;8.60;;;7.07;;
6217;SDS011;3142;48.206;11.550;2023-04-10T08:46:35;19.47;;;14.97;;
6217;SDS011;3142;48.206;11.550;2023-04-10T08:49:07;26.30;;;19.83;;
6217;SDS011;3142;48.206;11.550;2023-04-10T08:51:36;9.07;;;7.83;;
6217;SDS011;3142;48.206;11.550;2023-04-10T08:54:10;9.23;;;7.63;;
6217;SDS011;3142;48.206;11.550;2023-04-10T08:56:42;9.47;;;8.17;;
6217;SDS011;3142;48.206;11.550;2023-04-10T08:59:14;7.03;;;6.33;;
6217;SDS011;3142;48.206;11.550;2023-04-10T09:01:41;7.13;;;6.00;;
6217;SDS011;3142;48.206;11.550;2023-04-10T09:04:09;7.03;;;6.00;;
6217;SDS011;3142;48.206;11.550;2023-04-10T09:06:36;6.63;;;5.67;;
6217;SDS011;3142;48.206;11.550;2023-04-10T09:09:04;7.50;;;6.57;;
6217;SDS011;3142;48.206;11.550;2023-04-10T09:14:25;6.63;;;5.97;;
6217;SDS011;3142;48.206;11.550;2023-04-10T09:16:52;6.43;;;5.83;;
6217;SDS011;3142;48.206;11.550;2023-04-10T09:19:28;5.97;;;5.33;;
6217;SDS011;3142;48.206;11.550;2023-04-10T09:21:55;6.70;;;6.00;;
6217;SDS011;3142;48.206;11.550;2023-04-10T09:24:22;6.30;;;5.70;;
6217;SDS011;3142;48.206;11.550;2023-04-10T09:26:48;9.53;;;8.50;;
6217;SDS011;3142;48.206;11.550;2023-04-10T09:29:16;20.23;;;16.40;;
6217;SDS011;3142;48.206;11.550;2023-04-10T09:31:43;14.40;;;12.67;;
6217;SDS011;3142;48.206;11.550;2023-04-10T09:34:11;7.55;;;6.78;;
6217;SDS011;3142;48.206;11.550;2023-04-10T09:36:39;6.60;;;6.00;;
6217;SDS011;3142;48.206;11.550;2023-04-10T09:39:07;6.82;;;6.03;;
6217;SDS011;3142;48.206;11.550;2023-04-10T09:41:45;6.70;;;6.00;;
6217;SDS011;3142;48.206;11.550;2023-04-10T09:44:16;6.47;;;5.88;;
6217;SDS011;3142;48.206;11.550;2023-04-10T09:46:44;7.60;;;6.38;;
6217;SDS011;3142;48.206;11.550;2023-04-10T09:49:11;5.50;;;4.97;;
6217;SDS011;3142;48.206;11.550;2023-04-10T09:51:37;5.20;;;4.70;;
6217;SDS011;3142;48.206;11.550;2023-04-10T09:54:04;5.25;;;4.75;;
6217;SDS011;3142;48.206;11.550;2023-04-10T09:56:30;5.20;;;4.70;;
6217;SDS011;3142;48.206;11.550;2023-04-10T09:59:02;5.77;;;5.17;;
6217;SDS011;3142;48.206;11.550;2023-04-10T10:01:32;5.37;;;4.87;;
6217;SDS011;3142;48.206;11.550;2023-04-10T10:04:00;7.57;;;6.80;;
6217;SDS011;3142;48.206;11.550;2023-04-10T10:06:28;8.07;;;6.07;;
6217;SDS011;3142;48.206;11.550;2023-04-10T10:08:56;5.07;;;4.53;;
6217;SDS011;3142;48.206;11.550;2023-04-10T10:11:26;5.40;;;4.20;;
6217;SDS011;3142;48.206;11.550;2023-04-10T10:13:54;5.10;;;4.60;;
6217;SDS011;3142;48.206;11.550;2023-04-10T10:16:24;5.37;;;4.87;;
6217;SDS011;3142;48.206;11.550;2023-04-10T10:19:00;4.80;;;4.40;;
6217;SDS011;3142;48.206;11.550;2023-04-10T10:21:31;5.30;;;4.80;;
6217;SDS011;3142;48.206;11.550;2023-04-10T10:23:59;4.90;;;4.50;;
6217;SDS011;3142;48.206;11.550;2023-04-10T10:26:28;5.17;;;4.67;;
6217;SDS011;3142;48.206;11.550;2023-04-10T10:29:00;5.53;;;5.03;;
6217;SDS011;3142;48.206;11.550;2023-04-10T10:31:28;5.70;;;5.20;;
6217;SDS011;3142;48.206;11.550;2023-04-10T10:34:00;4.70;;;4.30;;
6217;SDS011;3142;48.206;11.550;2023-04-10T10:36:28;5.60;;;5.03;;
6217;SDS011;3142;48.206;11.550;2023-04-10T10:38:58;5.33;;;4.83;;
6217;SDS011;3142;48.206;11.550;2023-04-10T10:41:37;5.70;;;4.90;;
6217;SDS011;3142;48.206;11.550;2023-04-10T10:44:10;6.68;;;5.97;;
6217;SDS011;3142;48.206;11.550;2023-04-10T10:46:42;7.10;;;6.33;;
6217;SDS011;3142;48.206;11.550;2023-04-10T10:49:15;18.37;;;14.03;;
6217;SDS011;3142;48.206;11.550;2023-04-10T10:51:41;6.47;;;5.88;;
6217;SDS011;3142;48.206;11.550;2023-04-10T10:56:53;5.53;;;5.03;;
6217;SDS011;3142;48.206;11.550;2023-04-10T11:02:20;5.38;;;4.75;;
6217;SDS011;3142;48.206;11.550;2023-04-10T11:04:49;5.60;;;5.10;;
6217;SDS011;3142;48.206;11.550;2023-04-10T11:07:16;5.00;;;4.57;;
6217;SDS011;3142;48.206;11.550;2023-04-10T11:09:46;4.95;;;4.47;;
6217;SDS011;3142;48.206;11.550;2023-04-10T11:12:15;6.50;;;5.85;;
6217;SDS011;3142;48.206;11.550;2023-04-10T11:14:42;5.53;;;4.93;;
6217;SDS011;3142;48.206;11.550;2023-04-10T11:17:10;5.47;;;4.97;;
6217;SDS011;3142;48.206;11.550;2023-04-10T11:22:24;4.63;;;4.22;;
6217;SDS011;3142;48.206;11.550;2023-04-10T11:25:00;5.28;;;4.75;;
6217;SDS011;3142;48.206;11.550;2023-04-10T11:27:45;6.00;;;4.40;;
6217;SDS011;3142;48.206;11.550;2023-04-10T11:30:33;6.87;;;6.17;;
6217;SDS011;3142;48.206;11.550;2023-04-10T11:33:01;4.03;;;3.70;;
6217;SDS011;3142;48.206;11.550;2023-04-10T11:35:30;4.57;;;3.93;;
6217;SDS011;3142;48.206;11.550;2023-04-10T11:38:13;5.50;;;4.67;;
6217;SDS011;3142;48.206;11.550;2023-04-10T11:40:57;5.07;;;4.47;;
6217;SDS011;3142;48.206;11.550;2023-04-10T11:43:25;4.40;;;3.93;;
6217;SDS011;3142;48.206;11.550;2023-04-10T11:45:58;4.60;;;4.20;;
6217;SDS011;3142;48.206;11.550;2023-04-10T11:48:28;4.30;;;3.90;;
6217;SDS011;3142;48.206;11.550;2023-04-10T11:50:56;4.27;;;3.87;;
6217;SDS011;3142;48.206;11.550;2023-04-10T11:53:25;4.17;;;3.77;;
6217;SDS011;3142;48.206;11.550;2023-04-10T11:55:53;3.87;;;3.33;;
6217;SDS011;3142;48.206;11.550;2023-04-10T11:58:23;4.37;;;3.77;;
6217;SDS011;3142;48.206;11.550;2023-04-10T12:01:00;4.20;;;3.40;;
6217;SDS011;3142;48.206;11.550;2023-04-10T12:03:34;3.77;;;3.33;;
6217;SDS011;3142;48.206;11.550;2023-04-10T12:06:03;4.03;;;3.60;;
6217;SDS011;3142;48.206;11.550;2023-04-10T12:08:33;10.13;;;8.47;;
6217;SDS011;3142;48.206;11.550;2023-04-10T12:11:00;4.63;;;4.23;;
6217;SDS011;3142;48.206;11.550;2023-04-10T12:13:27;5.07;;;4.43;;
6217;SDS011;3142;48.206;11.550;2023-04-10T12:15:57;4.20;;;3.80;;
6217;SDS011;3142;48.206;11.550;2023-04-10T12:18:25;3.47;;;3.00;;
6217;SDS011;3142;48.206;11.550;2023-04-10T12:20:52;5.37;;;4.20;;
6217;SDS011;3142;48.206;11.550;2023-04-10T12:23:22;6.87;;;5.97;;
6217;SDS011;3142;48.206;11.550;2023-04-10T12:25:49;4.10;;;3.70;;
6217;SDS011;3142;48.206;11.550;2023-04-10T12:28:16;4.37;;;3.97;;
6217;SDS011;3142;48.206;11.550;2023-04-10T12:30:47;6.07;;;4.27;;
6217;SDS011;3142;48.206;11.550;2023-04-10T12:33:19;4.03;;;3.63;;
6217;SDS011;3142;48.206;11.550;2023-04-10T12:35:46;4.23;;;3.83;;
6217;SDS011;3142;48.206;11.550;2023-04-10T12:38:12;3.77;;;3.37;;
6217;SDS011;3142;48.206;11.550;2023-04-10T12:43:31;4.20;;;3.77;;
6217;SDS011;3142;48.206;11.550;2023-04-10T12:46:00;6.53;;;5.60;;
6217;SDS011;3142;48.206;11.550;2023-04-10T12:48:26;4.00;;;3.57;;
6217;SDS011;3142;48.206;11.550;2023-04-10T12:50:53;4.20;;;3.60;;
6217;SDS011;3142;48.206;11.550;2023-04-10T12:53:19;3.40;;;3.10;;
6217;SDS011;3142;48.206;11.550;2023-04-10T12:56:00;3.10;;;2.80;;
6217;SDS011;3142;48.206;11.550;2023-04-10T12:58:29;4.10;;;3.70;;
6217;SDS011;3142;48.206;11.550;2023-04-10T13:00:57;3.17;;;2.87;;
6217;SDS011;3142;48.206;11.550;2023-04-10T13:03:24;2.97;;;2.67;;
6217;SDS011;3142;48.206;11.550;2023-04-10T13:05:51;4.30;;;3.20;;
6217;SDS011;3142;48.206;11.550;2023-04-10T13:08:17;3.10;;;2.80;;
6217;SDS011;3142;48.206;11.550;2023-04-10T13:10:44;3.73;;;3.43;;
6217;SDS011;3142;48.206;11.550;2023-04-10T13:13:12;5.00;;;3.00;;
6217;SDS011;3142;48.206;11.550;2023-04-10T13:15:39;6.77;;;5.67;;
6217;SDS011;3142;48.206;11.550;2023-04-10T13:18:05;3.70;;;3.40;;
6217;SDS011;3142;48.206;11.550;2023-04-10T13:20:32;3.70;;;3.30;;
6217;SDS011;3142;48.206;11.550;2023-04-10T13:23:00;3.33;;;3.03;;
6217;SDS011;3142;48.206;11.550;2023-04-10T13:25:27;3.43;;;3.13;;
6217;SDS011;3142;48.206;11.550;2023-04-10T13:27:56;3.70;;;3.30;;
6217;SDS011;3142;48.206;11.550;2023-04-10T13:30:24;3.40;;;3.10;;
6217;SDS011;3142;48.206;11.550;2023-04-10T13:32:50;3.87;;;3.10;;
6217;SDS011;3142;48.206;11.550;2023-04-10T13:35:17;3.60;;;3.13;;
6217;SDS011;3142;48.206;11.550;2023-04-10T13:37:43;5.43;;;4.70;;
6217;SDS011;3142;48.206;11.550;2023-04-10T13:40:10;5.00;;;3.70;;
6217;SDS011;3142;48.206;11.550;2023-04-10T13:42:37;4.57;;;4.17;;
6217;SDS011;3142;48.206;11.550;2023-04-10T13:45:03;4.17;;;3.60;;
6217;SDS011;3142;48.206;11.550;2023-04-10T13:47:31;3.83;;;3.43;;
6217;SDS011;3142;48.206;11.550;2023-04-10T13:49:58;3.40;;;3.10;;
6217;SDS011;3142;48.206;11.550;2023-04-10T13:52:24;3.43;;;3.13;;
6217;SDS011;3142;48.206;11.550;2023-04-10T13:54:51;3.67;;;3.30;;
6217;SDS011;3142;48.206;11.550;2023-04-10T13:57:17;3.60;;;3.20;;
6217;SDS011;3142;48.206;11.550;2023-04-10T13:59:43;5.00;;;3.47;;
6217;SDS011;3142;48.206;11.550;2023-04-10T14:02:10;3.57;;;3.27;;
6217;SDS011;3142;48.206;11.550;2023-04-10T14:04:38;3.63;;;3.20;;
6217;SDS011;3142;48.206;11.550;2023-04-10T14:07:05;4.87;;;4.33;;
6217;SDS011;3142;48.206;11.550;2023-04-10T14:09:31;3.53;;;3.23;;
6217;SDS011;3142;48.206;11.550;2023-04-10T14:11:57;3.47;;;3.03;;
6217;SDS011;3142;48.206;11.550;2023-04-10T14:14:25;3.20;;;2.90;;
6217;SDS011;3142;48.206;11.550;2023-04-10T14:16:51;3.30;;;3.00;;
6217;SDS011;3142;48.206;11.550;2023-04-10T14:19:18;3.40;;;3.10;;
6217;SDS011;3142;48.206;11.550;2023-04-10T14:21:46;3.57;;;3.27;;
6217;SDS011;3142;48.206;11.550;2023-04-10T14:24:13;4.10;;;3.70;;
6217;SDS011;3142;48.206;11.550;2023-04-10T14:26:39;4.93;;;3.40;;
6217;SDS011;3142;48.206;11.550;2023-04-10T14:29:05;3.83;;;3.43;;
6217;SDS011;3142;48.206;11.550;2023-04-10T14:31:33;3.87;;;3.47;;
6217;SDS011;3142;48.206;11.550;2023-04-10T14:33:59;3.30;;;3.00;;
6217;SDS011;3142;48.206;11.550;2023-04-10T14:36:26;3.50;;;3.20;;
6217;SDS011;3142;48.206;11.550;2023-04-10T14:38:54;3.20;;;2.90;;
6217;SDS011;3142;48.206;11.550;2023-04-10T14:41:20;3.67;;;3.37;;
6217;SDS011;3142;48.206;11.550;2023-04-10T14:43:46;5.40;;;3.30;;
6217;SDS011;3142;48.206;11.550;2023-04-10T14:46:13;3.17;;;2.87;;
6217;SDS011;3142;48.206;11.550;2023-04-10T14:48:39;3.13;;;2.83;;
6217;SDS011;3142;48.206;11.550;2023-04-10T14:51:06;4.03;;;3.53;;
6217;SDS011;3142;48.206;11.550;2023-04-10T14:53:36;3.53;;;3.03;;
6217;SDS011;3142;48.206;11.550;2023-04-10T14:56:09;3.20;;;2.90;;
6217;SDS011;3142;48.206;11.550;2023-04-10T14:58:36;4.40;;;4.00;;
6217;SDS011;3142;48.206;11.550;2023-04-10T15:01:03;25.37;;;20.20;;
6217;SDS011;3142;48.206;11.550;2023-04-10T15:03:33;4.13;;;3.73;;
6217;SDS011;3142;48.206;11.550;2023-04-10T15:06:00;3.33;;;3.03;;
6217;SDS011;3142;48.206;11.550;2023-04-10T15:08:26;3.43;;;3.00;;
6217;SDS011;3142;48.206;11.550;2023-04-10T15:10:53;3.30;;;3.00;;